Hauptseite
METAR-TAF:

METAR-TAF

Flughäfen :

Flughafen Khartum

Khartum, Sudan

Breite: 15-36N, Länge: 032-33E, Höhe: 382 m

Beobachtung

Neuester Wetterbericht von vor 33 Minuten, um 22:30 UTC
Wind 16 kt aus Süd
Temperatur 30°C
Luftfeuchtigkeit 52%
Luftdruck 1009 hPa
Sichtweite 10 km oder mehr
keine Wolken unter 1500 m und keine Kumulonimbus oder Gewitterwolken

METAR: HSSS 232230Z 18016KT CAVOK 30/19 Q1009 NOSIG

Zeit: 02:03 (23:03 UTC)

Prognose

Neuester Wetterbericht von vor 6 Stunden und 3 Minuten, um 17:00 UTC
Gültige Prognose vom 23 um 18 UTC bis 24 um 24 UTC
Wind 12 kt aus Süd, Böen bis zu 22 kt
Sichtweite: 6000 m
Zeitweise
vom 23 um 20 UTC bis 24 um 03 UTC
Sichtweite 10 km oder mehr
Aufgelockert bewölkt in der Höhe von 4000 ft
Aufgelockert bewölkt in der Höhe von 14000 ft

TAF: HSSS 231700Z 2318/2424 19012G22KT 6000 NSC TEMPO 2320/2403 9999 SCT040 SCT140

Wetterbeobachtungen und Prognosen von mehr als 4000 Flughäfen (METAR und TAF Bericht).

Die verfügbaren Stationen werden durch gelbe und rote Markierungen auf der Karte dargestellt.

Führen Sie die Maus auf sie, um den Namen der Station zu sehen.

Darauf klicken, um die Beobachtung von Wetterbeobachtungen und Prognosen zu sehen.

Um die Karte zu ändern : klicken Sie auf den grünen Tasten mit einem schwarzen Kreuz Zum Vergrößern, auf den grünen Button mit einem Gedankenstrich zu verkleinern, oder auf die grünen Pfeile für benachbarte Karten.


METAR-TAF: